Terrace Airport
CYXT : now visible

Airfield :











YOU CAN JOIN US ON...

 
LOGIN :

Register | Disclaimer

   EN    FR    IT 

 









Legend :    VFR   Marginal VFR   IFR   Intensive IFR   Very Intensive IFR
Visi :
Ceiling :
>= 8 km
>= 3000ft
5 to 8 km
1000 to 3000 ft
1500m to 5 km
500 to 1000 ft
800 to 1500m
200 to 500 ft
< 800m
< 200 ft
Symbols :   Thunderstorms  Fog  Heavy snow  Heavy precipitations  Wind > 20 kt






- Airport Elevation : 713 ft
- IATA code : YXT


CYXT - Terrace

CURRENT METAR :
  • 062100Z 36020G31KT 20SM FEW010 SCT130 BKN160 M05/M09 A2990 RMK SF1AC3AC4 SF TR SLP139

EXPIRED METARs :
  • 062000Z 36020G27KT 20SM FEW010 BKN160 M05/M09 A2991 RMK SF1AC6 SLP144
  • 061900Z 36023G29KT 20SM FEW010 BKN160 BKN200 M05/M09 A2993 RMK SF1AC4CI2 SLP151

TAF TAF CYXT
Valid from the 06 at 19:00 until the 07 at 07:00 UTC


061838Z 0619/0707 36020G30KT P6SM FEW010 BKN160 BKN200 RMK NXT FCST BY 070100Z



MET'MAP, your aeronautical weather chart ! - Copyright ORBIFLY December 2007 - Disclaimer

ORBIFLY MET'MAP TEAM :

Programming & Development : Alexandra Zaïnal
Concept & original design : Baudouin d'Aumeries
Assistance for programming : Marc-Olivier Méhu
Technical & hardware support : Manuel Goepfert

Contact : metmap@orbifly.com




SOURCES & CREDITS :

   NOAA       Earth
Advisory